Hartberg, Austria
Current Conditions -  °F | °C
As of 1:20 AM on Sunday 26 Oct 2014 (Local Time) from LOWG Reporting Station
Overcast Overcast  
Wind Chill: 42°   Ceiling: 600
Heat Index: 45°   Visibility: 5mi
Dew Point: 41°   Wind: 5mph
Humidity: 87%   Direction: 20°NNE
Pressure: 30.3"   Gusts: NA
Location:  46.98°N, 16.12°E
Report Text: LOWG 260020Z AUTO 02004KT 350V050 8000 OVC006 07/05 Q1026
Loading
Personal Weather Stations






























Interactive Weather Map
Tropical Storm Tracking
New forecast layout! Learn more

10-Day Weather Forecast

Advertisements
Track Severe Weather on mobile